Terminal Aerodrome Forecast
Issued by NWS

Home | Current Version | Previous Version | Text Only | Print | Product List | Glossary On
Versions: 1 2 3 4 5 6 7 8 9 10 11 12 13 14
000
FTUS42 KGSP 061133
TAFGMU
TAF
KGMU 061133Z 0612/0712 34009KT P6SM SKC
     FM061500 34014G23KT P6SM FEW050 SCT250
     FM070000 29006KT P6SM FEW250=

USA.gov is the U.S. government's official web portal to all federal, state and local government web resources and services.